Time,TemperatureF,DewpointF,PressureIn,WindDirection,WindDirectionDegrees,WindSpeedMPH,WindSpeedGustMPH,Humidity,HourlyPrecipIn,Conditions,Clouds,dailyrainin,SolarRadiationWatts/m^2,SoftwareType,DateUTC
2013-08-14 00:00:00,70.0,64.9,29.99,NNE,28,5.0,12.0,84,0.00,CLR,CLR,0.00,0.0,WeatherDisplay:10.37,2013-08-14 05:00:00,
2013-08-14 00:10:00,69.7,64.6,29.99,NNE,26,5.0,8.0,84,0.00,CLR,CLR,0.00,0.0,WeatherDisplay:10.37,2013-08-14 05:10:00,
2013-08-14 00:20:00,69.5,64.1,29.99,NE,40,3.0,9.0,83,0.00,CLR,CLR,0.00,0.0,WeatherDisplay:10.37,2013-08-14 05:20:00,
2013-08-14 00:30:00,69.3,63.9,30.00,NNE,33,3.0,9.0,83,0.00,CLR,CLR,0.00,0.0,WeatherDisplay:10.37,2013-08-14 05:30:00,
2013-08-14 00:40:00,68.9,63.9,30.00,NE,35,3.0,8.0,84,0.00,CLR,CLR,0.00,0.0,WeatherDisplay:10.37,2013-08-14 05:40:00,
2013-08-14 00:50:00,68.7,63.7,30.00,NE,36,5.0,9.0,84,0.00,CLR,CLR,0.00,0.0,WeatherDisplay:10.37,2013-08-14 05:50:00,
2013-08-14 01:00:00,68.5,63.5,30.00,NE,34,3.0,9.0,84,0.00,CLR,CLR,0.00,0.0,WeatherDisplay:10.37,2013-08-14 06:00:00,
2013-08-14 01:10:00,68.3,63.3,30.00,NE,37,3.0,10.0,84,0.00,CLR,CLR,0.00,0.0,WeatherDisplay:10.37,2013-08-14 06:10:00,
2013-08-14 01:20:00,68.1,63.4,30.00,NE,38,5.0,8.0,85,0.00,CLR,CLR,0.00,0.0,WeatherDisplay:10.37,2013-08-14 06:20:00,
2013-08-14 01:30:00,67.8,63.1,30.00,NNE,31,5.0,10.0,85,0.00,CLR,CLR,0.00,0.0,WeatherDisplay:10.37,2013-08-14 06:30:00,
2013-08-14 01:40:00,67.5,63.2,30.00,NNE,28,3.0,7.0,86,0.00,CLR,CLR,0.00,0.0,WeatherDisplay:10.37,2013-08-14 06:40:00,
2013-08-14 01:50:00,67.3,63.0,30.01,NNE,29,2.0,7.0,86,0.00,CLR,CLR,0.00,0.0,WeatherDisplay:10.37,2013-08-14 06:50:00,
2013-08-14 02:00:00,67.1,62.8,30.01,NNE,30,2.0,8.0,86,0.00,CLR,CLR,0.00,0.0,WeatherDisplay:10.37,2013-08-14 07:00:00,
2013-08-14 02:10:00,66.9,62.9,30.00,NE,35,3.0,9.0,87,0.00,CLR,CLR,0.00,0.0,WeatherDisplay:10.37,2013-08-14 07:10:00,
2013-08-14 02:20:00,66.9,62.9,30.00,NE,39,6.0,12.0,87,0.00,CLR,CLR,0.00,0.0,WeatherDisplay:10.37,2013-08-14 07:20:00,
2013-08-14 02:30:00,66.8,62.8,30.00,NNE,28,8.0,12.0,87,0.00,CLR,CLR,0.00,0.0,WeatherDisplay:10.37,2013-08-14 07:30:00,
2013-08-14 02:40:00,66.7,62.4,30.00,NE,36,6.0,10.0,86,0.00,CLR,CLR,0.00,0.0,WeatherDisplay:10.37,2013-08-14 07:40:00,
2013-08-14 02:50:00,66.5,62.5,30.00,NNE,27,5.0,10.0,87,0.00,CLR,CLR,0.00,0.0,WeatherDisplay:10.37,2013-08-14 07:50:00,
2013-08-14 03:00:00,66.2,62.5,30.00,NE,35,5.0,8.0,88,0.00,CLR,CLR,0.00,0.0,WeatherDisplay:10.37,2013-08-14 08:00:00,
2013-08-14 03:10:00,65.9,62.2,30.01,NE,40,2.0,9.0,88,0.00,CLR,CLR,0.00,0.0,WeatherDisplay:10.37,2013-08-14 08:10:00,
2013-08-14 03:20:00,65.7,62.0,30.01,NE,41,6.0,10.0,88,0.00,CLR,CLR,0.00,0.0,WeatherDisplay:10.37,2013-08-14 08:20:00,
2013-08-14 03:30:00,65.5,61.9,30.01,NE,35,5.0,12.0,88,0.00,CLR,CLR,0.00,0.0,WeatherDisplay:10.37,2013-08-14 08:30:00,
2013-08-14 03:40:00,65.4,61.4,30.01,NE,44,6.0,13.0,87,0.00,CLR,CLR,0.00,0.0,WeatherDisplay:10.37,2013-08-14 08:40:00,
2013-08-14 03:50:00,65.2,60.9,30.01,NNE,27,3.0,12.0,86,0.00,CLR,CLR,0.00,0.0,WeatherDisplay:10.37,2013-08-14 08:50:00,
2013-08-14 04:00:00,65.0,60.7,30.02,NNE,29,5.0,10.0,86,0.00,CLR,CLR,0.00,0.0,WeatherDisplay:10.37,2013-08-14 09:00:00,
2013-08-14 04:10:00,64.6,59.7,30.02,NNE,30,6.0,10.0,84,0.00,CLR,CLR,0.00,0.0,WeatherDisplay:10.37,2013-08-14 09:10:00,
2013-08-14 04:20:00,64.4,58.8,30.02,NNE,30,5.0,8.0,82,0.00,CLR,CLR,0.00,0.0,WeatherDisplay:10.37,2013-08-14 09:20:00,
2013-08-14 04:30:00,64.1,58.2,30.02,NE,35,3.0,12.0,81,0.00,CLR,CLR,0.00,0.0,WeatherDisplay:10.37,2013-08-14 09:30:00,
2013-08-14 04:40:00,63.8,57.8,30.03,NNE,28,3.0,9.0,81,0.00,CLR,CLR,0.00,0.0,WeatherDisplay:10.37,2013-08-14 09:40:00,
2013-08-14 04:50:00,63.4,57.5,30.03,NE,39,5.0,8.0,81,0.00,CLR,CLR,0.00,0.0,WeatherDisplay:10.37,2013-08-14 09:50:00,
2013-08-14 05:00:00,63.0,57.8,30.03,NE,36,3.0,7.0,83,0.00,CLR,CLR,0.00,0.0,WeatherDisplay:10.37,2013-08-14 10:00:00,
2013-08-14 05:10:00,62.7,57.8,30.03,NE,34,3.0,7.0,84,0.00,CLR,CLR,0.00,0.0,WeatherDisplay:10.37,2013-08-14 10:10:00,
2013-08-14 05:20:00,62.4,57.8,30.04,NE,37,3.0,9.0,85,0.00,CLR,CLR,0.00,0.0,WeatherDisplay:10.37,2013-08-14 10:20:00,
2013-08-14 05:30:00,62.2,57.6,30.04,NNE,28,3.0,10.0,85,0.00,CLR,CLR,0.00,0.0,WeatherDisplay:10.37,2013-08-14 10:30:00,
2013-08-14 05:40:00,61.9,57.4,30.04,NE,40,3.0,8.0,85,0.00,CLR,CLR,0.00,0.0,WeatherDisplay:10.37,2013-08-14 10:40:00,
2013-08-14 05:50:00,61.6,57.0,30.04,NE,34,2.0,7.0,85,0.00,CLR,CLR,0.00,0.0,WeatherDisplay:10.37,2013-08-14 10:50:00,
2013-08-14 06:00:00,61.3,56.8,30.05,NE,37,7.0,10.0,85,0.00,CLR,CLR,0.00,0.0,WeatherDisplay:10.37,2013-08-14 11:00:00,
2013-08-14 06:10:00,61.1,56.5,30.05,NE,34,3.0,8.0,85,0.00,CLR,CLR,0.00,0.0,WeatherDisplay:10.37,2013-08-14 11:10:00,
2013-08-14 06:20:00,60.8,56.3,30.06,NNE,21,3.0,9.0,85,0.00,CLR,CLR,0.00,0.0,WeatherDisplay:10.37,2013-08-14 11:20:00,
2013-08-14 06:30:00,60.5,56.0,30.06,NNE,29,1.0,7.0,85,0.00,CLR,CLR,0.00,0.0,WeatherDisplay:10.37,2013-08-14 11:30:00,
2013-08-14 06:40:00,60.4,55.9,30.07,NE,37,3.0,8.0,85,0.00,CLR,CLR,0.00,0.0,WeatherDisplay:10.37,2013-08-14 11:40:00,
2013-08-14 06:50:00,60.4,55.5,30.07,NNE,25,2.0,8.0,84,0.00,CLR,CLR,0.00,0.0,WeatherDisplay:10.37,2013-08-14 11:50:00,
2013-08-14 07:00:00,60.3,55.1,30.07,NNE,32,3.0,10.0,83,0.00,CLR,CLR,0.00,0.0,WeatherDisplay:10.37,2013-08-14 12:00:00,
2013-08-14 07:10:00,60.3,55.1,30.07,NE,36,6.0,12.0,83,0.00,CLR,CLR,0.00,0.0,WeatherDisplay:10.37,2013-08-14 12:10:00,
2013-08-14 07:20:00,60.5,54.6,30.07,NNE,21,5.0,12.0,81,0.00,CLR,CLR,0.00,0.0,WeatherDisplay:10.37,2013-08-14 12:20:00,
2013-08-14 07:30:00,60.9,54.7,30.07,NNE,32,7.0,12.0,80,0.00,CLR,CLR,0.00,0.0,WeatherDisplay:10.37,2013-08-14 12:30:00,
2013-08-14 07:40:00,61.4,54.8,30.07,NE,43,3.0,12.0,79,0.00,CLR,CLR,0.00,0.0,WeatherDisplay:10.37,2013-08-14 12:40:00,
2013-08-14 07:50:00,61.8,54.9,30.08,NE,38,5.0,12.0,78,0.00,CLR,CLR,0.00,0.0,WeatherDisplay:10.37,2013-08-14 12:50:00,
2013-08-14 08:00:00,62.4,55.1,30.08,NNE,33,7.0,12.0,77,0.00,CLR,CLR,0.00,0.0,WeatherDisplay:10.37,2013-08-14 13:00:00,
2013-08-14 08:10:00,62.7,55.4,30.08,NE,36,5.0,10.0,77,0.00,CLR,CLR,0.00,0.0,WeatherDisplay:10.37,2013-08-14 13:10:00,
2013-08-14 08:20:00,62.8,55.5,30.08,NE,36,7.0,15.0,77,0.00,CLR,CLR,0.00,0.0,WeatherDisplay:10.37,2013-08-14 13:20:00,
2013-08-14 08:30:00,63.2,55.5,30.08,NE,41,5.0,13.0,76,0.00,CLR,CLR,0.00,0.0,WeatherDisplay:10.37,2013-08-14 13:30:00,
2013-08-14 08:40:00,63.6,55.5,30.08,NNE,23,5.0,14.0,75,0.00,CLR,CLR,0.00,0.0,WeatherDisplay:10.37,2013-08-14 13:40:00,
2013-08-14 08:50:00,64.3,55.8,30.08,NE,38,7.0,12.0,74,0.00,CLR,CLR,0.00,0.0,WeatherDisplay:10.37,2013-08-14 13:50:00,
2013-08-14 09:00:00,64.9,56.0,30.08,NNE,29,5.0,14.0,73,0.00,CLR,CLR,0.00,0.0,WeatherDisplay:10.37,2013-08-14 14:00:00,
2013-08-14 09:10:00,65.3,56.0,30.08,NE,39,7.0,12.0,72,0.00,CLR,CLR,0.00,0.0,WeatherDisplay:10.37,2013-08-14 14:10:00,
2013-08-14 09:20:00,66.2,56.5,30.08,NE,40,5.0,10.0,71,0.00,CLR,CLR,0.00,0.0,WeatherDisplay:10.37,2013-08-14 14:20:00,
2013-08-14 09:30:00,67.0,56.9,30.08,NE,34,5.0,12.0,70,0.00,CLR,CLR,0.00,0.0,WeatherDisplay:10.37,2013-08-14 14:30:00,
2013-08-14 09:40:00,67.2,56.3,30.09,NE,41,7.0,14.0,68,0.00,CLR,CLR,0.00,0.0,WeatherDisplay:10.37,2013-08-14 14:40:00,
2013-08-14 09:50:00,68.1,56.3,30.09,NE,37,8.0,13.0,66,0.00,CLR,CLR,0.00,0.0,WeatherDisplay:10.37,2013-08-14 14:50:00,
2013-08-14 10:00:00,68.6,56.4,30.09,NE,42,5.0,13.0,65,0.00,CLR,CLR,0.00,0.0,WeatherDisplay:10.37,2013-08-14 15:00:00,
2013-08-14 10:10:00,68.6,56.0,30.10,NE,45,5.0,15.0,64,0.00,CLR,CLR,0.00,0.0,WeatherDisplay:10.37,2013-08-14 15:10:00,
2013-08-14 10:20:00,69.2,55.6,30.10,NE,43,10.0,17.0,62,0.00,CLR,CLR,0.00,0.0,WeatherDisplay:10.37,2013-08-14 15:20:00,
2013-08-14 10:30:00,69.6,55.1,30.10,NE,42,6.0,14.0,60,0.00,CLR,CLR,0.00,0.0,WeatherDisplay:10.37,2013-08-14 15:30:00,
2013-08-14 10:40:00,70.6,56.5,30.09,NE,53,5.0,12.0,61,0.00,CLR,CLR,0.00,0.0,WeatherDisplay:10.37,2013-08-14 15:40:00,
2013-08-14 10:50:00,70.5,54.5,30.09,NE,44,8.0,15.0,57,0.00,CLR,CLR,0.00,0.0,WeatherDisplay:10.37,2013-08-14 15:50:00,
2013-08-14 11:00:00,70.8,53.8,30.09,NE,38,10.0,17.0,55,0.00,CLR,CLR,0.00,0.0,WeatherDisplay:10.37,2013-08-14 16:00:00,
2013-08-14 11:10:00,70.9,55.4,30.09,NE,49,6.0,16.0,58,0.00,CLR,CLR,0.00,0.0,WeatherDisplay:10.37,2013-08-14 16:10:00,
2013-08-14 11:20:00,71.7,55.1,30.09,NE,41,7.0,15.0,56,0.00,CLR,CLR,0.00,0.0,WeatherDisplay:10.37,2013-08-14 16:20:00,
2013-08-14 11:30:00,71.6,54.6,30.09,NE,48,7.0,20.0,55,0.00,CLR,CLR,0.00,0.0,WeatherDisplay:10.37,2013-08-14 16:30:00,
2013-08-14 11:40:00,71.7,55.2,30.09,NE,50,6.0,13.0,56,0.00,CLR,CLR,0.00,0.0,WeatherDisplay:10.37,2013-08-14 16:40:00,
2013-08-14 11:50:00,71.7,55.2,30.08,NNE,30,7.0,15.0,56,0.00,CLR,CLR,0.00,0.0,WeatherDisplay:10.37,2013-08-14 16:50:00,
2013-08-14 12:00:00,72.6,54.5,30.08,NE,44,5.0,16.0,53,0.00,CLR,CLR,0.00,0.0,WeatherDisplay:10.37,2013-08-14 17:00:00,
2013-08-14 12:10:00,73.1,55.5,30.09,NE,40,5.0,14.0,54,0.00,CLR,CLR,0.00,0.0,WeatherDisplay:10.37,2013-08-14 17:10:00,
2013-08-14 12:20:00,73.3,55.2,30.08,NE,45,5.0,12.0,53,0.00,CLR,CLR,0.00,0.0,WeatherDisplay:10.37,2013-08-14 17:20:00,
2013-08-14 12:30:00,73.3,55.1,30.08,NE,37,9.0,15.0,53,0.00,CLR,CLR,0.00,0.0,WeatherDisplay:10.37,2013-08-14 17:30:00,
2013-08-14 12:40:00,73.5,55.3,30.08,NE,37,6.0,14.0,53,0.00,CLR,CLR,0.00,0.0,WeatherDisplay:10.37,2013-08-14 17:40:00,
2013-08-14 12:50:00,73.1,54.9,30.08,NNE,26,7.0,15.0,53,0.00,CLR,CLR,0.00,0.0,WeatherDisplay:10.37,2013-08-14 17:50:00,
2013-08-14 13:00:00,74.0,54.7,30.08,NE,46,8.0,14.0,51,0.00,CLR,CLR,0.00,0.0,WeatherDisplay:10.37,2013-08-14 18:00:00,
2013-08-14 13:10:00,74.5,56.7,30.08,NE,42,3.0,15.0,54,0.00,CLR,CLR,0.00,0.0,WeatherDisplay:10.37,2013-08-14 18:10:00,
2013-08-14 13:20:00,74.3,54.5,30.08,NE,41,9.0,16.0,50,0.00,CLR,CLR,0.00,0.0,WeatherDisplay:10.37,2013-08-14 18:20:00,
2013-08-14 13:30:00,74.4,56.2,30.07,NNE,33,9.0,16.0,53,0.00,CLR,CLR,0.00,0.0,WeatherDisplay:10.37,2013-08-14 18:30:00,
2013-08-14 13:40:00,75.5,55.5,30.07,NE,51,5.0,13.0,50,0.00,CLR,CLR,0.00,0.0,WeatherDisplay:10.37,2013-08-14 18:40:00,
2013-08-14 13:50:00,75.2,56.4,30.07,NE,46,7.0,12.0,52,0.00,CLR,CLR,0.00,0.0,WeatherDisplay:10.37,2013-08-14 18:50:00,
2013-08-14 14:00:00,74.9,56.1,30.07,NE,35,8.0,14.0,52,0.00,CLR,CLR,0.00,0.0,WeatherDisplay:10.37,2013-08-14 19:00:00,
2013-08-14 14:20:00,74.5,56.2,30.07,NNE,32,6.0,16.0,53,0.00,CLR,CLR,0.00,0.0,WeatherDisplay:10.37,2013-08-14 19:20:00,
2013-08-14 14:30:00,75.4,56.5,30.07,NE,46,6.0,12.0,52,0.00,CLR,CLR,0.00,0.0,WeatherDisplay:10.37,2013-08-14 19:30:00,
2013-08-14 14:40:00,75.5,56.6,30.07,NE,43,5.0,14.0,52,0.00,CLR,CLR,0.00,0.0,WeatherDisplay:10.37,2013-08-14 19:40:00,
2013-08-14 14:50:00,75.8,55.8,30.07,NE,45,5.0,15.0,50,0.00,CLR,CLR,0.00,0.0,WeatherDisplay:10.37,2013-08-14 19:50:00,
2013-08-14 15:00:00,75.4,56.5,30.06,NNE,23,7.0,16.0,52,0.00,CLR,CLR,0.00,0.0,WeatherDisplay:10.37,2013-08-14 20:00:00,
2013-08-14 15:10:00,75.3,55.4,30.06,NE,34,6.0,12.0,50,0.00,CLR,CLR,0.00,0.0,WeatherDisplay:10.37,2013-08-14 20:10:00,
2013-08-14 15:40:00,76.2,56.2,30.05,NE,41,5.0,15.0,50,0.00,CLR,CLR,0.00,0.0,WeatherDisplay:10.37,2013-08-14 20:40:00,
2013-08-14 15:50:00,76.0,55.5,30.04,NE,44,7.0,15.0,49,0.00,CLR,CLR,0.00,0.0,WeatherDisplay:10.37,2013-08-14 20:50:00,
2013-08-14 16:00:00,75.5,55.5,30.04,NE,44,9.0,14.0,50,0.00,CLR,CLR,0.00,0.0,WeatherDisplay:10.37,2013-08-14 21:00:00,
2013-08-14 16:10:00,75.9,56.5,30.04,NNE,32,8.0,16.0,51,0.00,CLR,CLR,0.00,0.0,WeatherDisplay:10.37,2013-08-14 21:10:00,
2013-08-14 16:20:00,75.8,56.9,30.04,NNE,28,6.0,13.0,52,0.00,CLR,CLR,0.00,0.0,WeatherDisplay:10.37,2013-08-14 21:20:00,
2013-08-14 16:30:00,75.8,55.8,30.04,NNE,21,8.0,15.0,50,0.00,CLR,CLR,0.00,0.0,WeatherDisplay:10.37,2013-08-14 21:30:00,
2013-08-14 16:40:00,75.4,55.4,30.04,NE,34,9.0,14.0,50,0.00,CLR,CLR,0.00,0.0,WeatherDisplay:10.37,2013-08-14 21:40:00,
2013-08-14 16:50:00,75.3,54.8,30.04,NNE,29,8.0,16.0,49,0.00,CLR,CLR,0.00,0.0,WeatherDisplay:10.37,2013-08-14 21:50:00,
2013-08-14 17:00:00,75.5,55.0,30.04,NNE,23,8.0,17.0,49,0.00,CLR,CLR,0.00,0.0,WeatherDisplay:10.37,2013-08-14 22:00:00,
2013-08-14 17:10:00,75.8,55.8,30.04,NNE,25,6.0,13.0,50,0.00,CLR,CLR,0.00,0.0,WeatherDisplay:10.37,2013-08-14 22:10:00,
2013-08-14 17:20:00,75.4,55.5,30.04,NNE,19,12.0,17.0,50,0.00,CLR,CLR,0.00,0.0,WeatherDisplay:10.37,2013-08-14 22:20:00,
2013-08-14 17:30:00,75.1,55.7,30.04,NNE,22,8.0,17.0,51,0.00,CLR,CLR,0.00,0.0,WeatherDisplay:10.37,2013-08-14 22:30:00,
2013-08-14 17:40:00,74.6,55.3,30.04,NNE,31,8.0,18.0,51,0.00,CLR,CLR,0.00,0.0,WeatherDisplay:10.37,2013-08-14 22:40:00,
2013-08-14 17:50:00,74.7,54.8,30.04,NNE,21,7.0,15.0,50,0.00,CLR,CLR,0.00,0.0,WeatherDisplay:10.37,2013-08-14 22:50:00,
2013-08-14 18:00:00,74.8,55.5,30.04,NE,34,6.0,13.0,51,0.00,CLR,CLR,0.00,0.0,WeatherDisplay:10.37,2013-08-14 23:00:00,
2013-08-14 18:10:00,74.4,55.1,30.04,NNE,26,6.0,16.0,51,0.00,CLR,CLR,0.00,0.0,WeatherDisplay:10.37,2013-08-14 23:10:00,
2013-08-14 18:20:00,74.3,55.0,30.04,NE,37,8.0,15.0,51,0.00,CLR,CLR,0.00,0.0,WeatherDisplay:10.37,2013-08-14 23:20:00,
2013-08-14 18:30:00,74.0,54.2,30.04,NE,35,7.0,16.0,50,0.00,CLR,CLR,0.00,0.0,WeatherDisplay:10.37,2013-08-14 23:30:00,
2013-08-14 18:40:00,73.5,54.3,30.03,NNE,30,7.0,12.0,51,0.00,CLR,CLR,0.00,0.0,WeatherDisplay:10.37,2013-08-14 23:40:00,
2013-08-14 18:50:00,73.1,54.4,30.03,NE,36,8.0,12.0,52,0.00,CLR,CLR,0.00,0.0,WeatherDisplay:10.37,2013-08-14 23:50:00,
2013-08-14 19:00:00,72.8,54.7,30.03,NE,38,6.0,12.0,53,0.00,CLR,CLR,0.00,0.0,WeatherDisplay:10.37,2013-08-15 00:00:00,
2013-08-14 19:10:00,72.5,55.4,30.03,NE,37,3.0,12.0,55,0.00,CLR,CLR,0.00,0.0,WeatherDisplay:10.37,2013-08-15 00:10:00,
2013-08-14 19:20:00,72.0,55.4,30.04,NE,42,3.0,9.0,56,0.00,CLR,CLR,0.00,0.0,WeatherDisplay:10.37,2013-08-15 00:20:00,
2013-08-14 19:30:00,71.2,55.6,30.04,NNE,30,5.0,12.0,58,0.00,CLR,CLR,0.00,0.0,WeatherDisplay:10.37,2013-08-15 00:30:00,
2013-08-14 19:40:00,70.3,55.8,30.05,NNE,30,6.0,9.0,60,0.00,CLR,CLR,0.00,0.0,WeatherDisplay:10.37,2013-08-15 00:40:00,
2013-08-14 19:50:00,69.6,56.0,30.04,NE,40,2.0,8.0,62,0.00,CLR,CLR,0.00,0.0,WeatherDisplay:10.37,2013-08-15 00:50:00,
2013-08-14 20:00:00,68.9,55.4,30.04,NE,39,3.0,8.0,62,0.00,CLR,CLR,0.00,0.0,WeatherDisplay:10.37,2013-08-15 01:00:00,
2013-08-14 20:10:00,68.5,55.4,30.05,NNE,26,2.0,9.0,63,0.00,CLR,CLR,0.00,0.0,WeatherDisplay:10.37,2013-08-15 01:10:00,
2013-08-14 20:20:00,68.1,55.0,30.05,NE,46,3.0,8.0,63,0.00,CLR,CLR,0.00,0.0,WeatherDisplay:10.37,2013-08-15 01:20:00,
2013-08-14 20:30:00,67.6,54.6,30.05,NE,41,3.0,7.0,63,0.00,CLR,CLR,0.00,0.0,WeatherDisplay:10.37,2013-08-15 01:30:00,
2013-08-14 20:40:00,67.3,54.7,30.05,NE,40,2.0,6.0,64,0.00,CLR,CLR,0.00,0.0,WeatherDisplay:10.37,2013-08-15 01:40:00,
2013-08-14 20:50:00,66.9,54.7,30.06,NNE,30,2.0,5.0,65,0.00,CLR,CLR,0.00,0.0,WeatherDisplay:10.37,2013-08-15 01:50:00,
2013-08-14 21:00:00,66.5,54.8,30.06,NNE,24,2.0,4.0,66,0.00,CLR,CLR,0.00,0.0,WeatherDisplay:10.37,2013-08-15 02:00:00,
2013-08-14 21:10:00,66.2,54.9,30.07,NE,40,1.0,4.0,67,0.00,CLR,CLR,0.00,0.0,WeatherDisplay:10.37,2013-08-15 02:10:00,
2013-08-14 21:20:00,65.9,55.0,30.08,NNE,16,1.0,3.0,68,0.00,CLR,CLR,0.00,0.0,WeatherDisplay:10.37,2013-08-15 02:20:00,
2013-08-14 21:30:00,65.7,55.2,30.08,North,5,1.0,4.0,69,0.00,CLR,CLR,0.00,0.0,WeatherDisplay:10.37,2013-08-15 02:30:00,
2013-08-14 21:40:00,65.5,55.4,30.08,NNE,22,1.0,3.0,70,0.00,CLR,CLR,0.00,0.0,WeatherDisplay:10.37,2013-08-15 02:40:00,
2013-08-14 21:50:00,65.2,55.2,30.08,North,10,2.0,5.0,70,0.00,CLR,CLR,0.00,0.0,WeatherDisplay:10.37,2013-08-15 02:50:00,
2013-08-14 22:00:00,64.9,55.3,30.08,NE,34,1.0,4.0,71,0.00,CLR,CLR,0.00,0.0,WeatherDisplay:10.37,2013-08-15 03:00:00,
2013-08-14 22:10:00,64.7,55.1,30.08,North,354,2.0,5.0,71,0.00,CLR,CLR,0.00,0.0,WeatherDisplay:10.37,2013-08-15 03:10:00,
2013-08-14 22:20:00,64.6,55.4,30.08,NNE,13,2.0,6.0,72,0.00,CLR,CLR,0.00,0.0,WeatherDisplay:10.37,2013-08-15 03:20:00,
2013-08-14 22:30:00,64.3,55.5,30.08,North,359,1.0,4.0,73,0.00,CLR,CLR,0.00,0.0,WeatherDisplay:10.37,2013-08-15 03:30:00,
2013-08-14 22:40:00,63.9,55.4,30.08,NNE,22,2.0,5.0,74,0.00,CLR,CLR,0.00,0.0,WeatherDisplay:10.37,2013-08-15 03:40:00,
2013-08-14 22:50:00,63.6,55.5,30.08,NNE,26,2.0,6.0,75,0.00,CLR,CLR,0.00,0.0,WeatherDisplay:10.37,2013-08-15 03:50:00,
2013-08-14 23:00:00,63.4,55.3,30.08,NE,34,3.0,7.0,75,0.00,CLR,CLR,0.00,0.0,WeatherDisplay:10.37,2013-08-15 04:00:00,
2013-08-14 23:10:00,63.3,55.2,30.08,NNE,28,2.0,7.0,75,0.00,CLR,CLR,0.00,0.0,WeatherDisplay:10.37,2013-08-15 04:10:00,
2013-08-14 23:20:00,63.2,55.1,30.08,NNE,28,3.0,7.0,75,0.00,CLR,CLR,0.00,0.0,WeatherDisplay:10.37,2013-08-15 04:20:00,
2013-08-14 23:30:00,63.0,55.3,30.08,NNE,32,3.0,8.0,76,0.00,CLR,CLR,0.00,0.0,WeatherDisplay:10.37,2013-08-15 04:30:00,
2013-08-14 23:40:00,62.8,55.1,30.08,NE,35,2.0,6.0,76,0.00,CLR,CLR,0.00,0.0,WeatherDisplay:10.37,2013-08-15 04:40:00,
2013-08-14 23:50:00,62.5,55.2,30.08,NE,43,3.0,8.0,77,0.00,CLR,CLR,0.00,0.0,WeatherDisplay:10.37,2013-08-15 04:50:00,